Time;durP1;ratioP1;P1;durP2;ratioP2;P2;SDS_P1;SDS_P2;PMS_P1;PMS_P2;Temp;Humidity;BMP_temperature;BMP_pressure;BME280_temperature;BME280_humidity;BME280_pressure;Samples;Min_cycle;Max_cycle;Signal;HPM_P1;HPM_P2
2022/09/30 00:01:54;;;;;;;79.45;33.45;;;17.20;55.60;;;;;;5071649;28;20203;-66
2022/09/30 00:04:23;;;;;;;71.95;32.80;;;17.20;55.60;;;;;;5057124;28;20237;-65
2022/09/30 00:06:52;;;;;;;72.15;31.30;;;17.10;55.50;;;;;;5052112;28;20212;-65
2022/09/30 00:09:20;;;;;;;78.60;32.42;;;17.10;55.60;;;;;;5053300;28;20321;-66
2022/09/30 00:11:47;;;;;;;84.25;32.92;;;17.10;55.60;;;;;;5051813;28;20195;-65
2022/09/30 00:14:36;;;;;;;71.10;30.20;;;17.10;55.50;;;;;;5053747;28;20210;-65
2022/09/30 00:17:04;;;;;;;76.30;32.63;;;17.10;55.60;;;;;;5053297;28;20684;-65
2022/09/30 00:19:31;;;;;;;65.32;29.05;;;17.10;55.60;;;;;;5053585;28;20223;-65
2022/09/30 00:21:59;;;;;;;73.50;30.35;;;17.10;55.50;;;;;;5052197;28;20233;-66
2022/09/30 00:24:26;;;;;;;67.28;27.83;;;17.10;55.60;;;;;;5052370;28;20574;-65
2022/09/30 00:26:53;;;;;;;66.45;29.45;;;17.10;55.60;;;;;;5054579;28;20282;-65
2022/09/30 00:29:20;;;;;;;67.10;27.77;;;17.10;55.60;;;;;;5053588;28;20241;-66
2022/09/30 00:31:47;;;;;;;61.63;27.70;;;17.10;55.60;;;;;;5052251;28;20226;-65
2022/09/30 00:34:16;;;;;;;62.72;28.92;;;17.10;55.60;;;;;;5051939;28;20219;-65
2022/09/30 00:36:44;;;;;;;65.68;27.50;;;17.10;55.70;;;;;;5053246;28;20294;-66
2022/09/30 00:39:12;;;;;;;64.55;27.50;;;17.10;55.70;;;;;;5052075;28;20218;-65
2022/09/30 00:41:39;;;;;;;59.85;27.17;;;17.10;55.70;;;;;;5051836;28;20195;-65
2022/09/30 00:44:45;;;;;;;62.85;27.77;;;17.10;55.80;;;;;;5053313;28;20259;-65
2022/09/30 00:47:30;;;;;;;60.55;25.83;;;17.10;55.70;;;;;;5051440;28;20227;-65
2022/09/30 00:50:01;;;;;;;58.92;26.35;;;17.10;55.80;;;;;;5051609;28;20203;-65
2022/09/30 00:52:28;;;;;;;54.28;24.58;;;17.10;55.60;;;;;;5051354;28;20584;-65
2022/09/30 00:54:56;;;;;;;56.38;25.00;;;17.10;55.60;;;;;;5052468;28;20293;-65
2022/09/30 00:57:23;;;;;;;54.42;24.98;;;17.10;55.60;;;;;;5052558;28;20792;-65
2022/09/30 00:59:50;;;;;;;54.10;24.30;;;17.10;55.60;;;;;;5051317;28;20196;-65
2022/09/30 01:02:17;;;;;;;51.75;24.70;;;17.10;55.60;;;;;;5052498;28;20579;-65
2022/09/30 01:04:44;;;;;;;53.33;24.10;;;17.10;55.70;;;;;;5051782;28;20271;-65
2022/09/30 01:07:13;;;;;;;45.78;22.60;;;17.10;55.80;;;;;;5054951;28;20219;-66
2022/09/30 01:09:41;;;;;;;56.65;25.65;;;17.10;55.70;;;;;;5055035;28;20680;-65
2022/09/30 01:12:09;;;;;;;51.75;22.27;;;17.10;55.60;;;;;;5054869;28;20202;-65
2022/09/30 01:14:37;;;;;;;48.78;22.67;;;17.10;55.70;;;;;;5054684;28;20569;-65
2022/09/30 01:17:06;;;;;;;49.45;21.75;;;17.10;55.70;;;;;;5054661;28;20246;-66
2022/09/30 01:19:49;;;;;;;51.30;23.23;;;17.10;55.60;;;;;;5055987;28;20194;-65
2022/09/30 01:22:24;;;;;;;56.40;23.95;;;17.20;55.80;;;;;;5054763;28;20218;-65
2022/09/30 01:25:32;;;;;;;44.50;20.60;;;17.10;55.70;;;;;;5054680;28;20289;-65
2022/09/30 01:28:40;;;;;;;48.85;21.60;;;17.20;55.80;;;;;;5054449;28;20216;-66
2022/09/30 01:31:14;;;;;;;41.78;19.55;;;17.10;55.70;;;;;;5025752;28;20222;-65
2022/09/30 01:33:46;;;;;;;48.70;22.23;;;17.10;55.60;;;;;;5055109;28;20257;-65
2022/09/30 01:36:21;;;;;;;43.60;20.55;;;17.10;55.70;;;;;;5054364;28;20661;-65
2022/09/30 01:38:59;;;;;;;40.33;18.73;;;17.10;55.60;;;;;;5054164;28;20205;-65
2022/09/30 01:41:27;;;;;;;40.90;18.65;;;17.20;55.60;;;;;;5054146;28;20653;-65
2022/09/30 01:43:58;;;;;;;43.25;18.70;;;17.10;55.60;;;;;;5054141;28;20199;-65
2022/09/30 01:46:30;;;;;;;39.25;18.48;;;17.20;55.60;;;;;;5055450;28;20245;-66
2022/09/30 01:48:59;;;;;;;37.78;17.88;;;17.10;55.40;;;;;;5055664;28;20168;-65
2022/09/30 01:51:30;;;;;;;44.17;20.25;;;17.20;55.60;;;;;;5055454;28;20199;-65
2022/09/30 01:53:58;;;;;;;38.88;17.88;;;17.10;55.60;;;;;;5055011;28;20200;-65
2022/09/30 01:56:28;;;;;;;43.67;19.15;;;17.20;55.60;;;;;;5055057;28;20196;-65
2022/09/30 01:58:57;;;;;;;37.63;17.73;;;17.20;55.50;;;;;;5055309;28;20188;-65
2022/09/30 02:01:27;;;;;;;36.03;17.60;;;17.10;55.40;;;;;;5070500;28;20202;-66
2022/09/30 02:03:55;;;;;;;38.72;18.02;;;17.20;55.60;;;;;;5055569;28;20180;-65
2022/09/30 02:06:24;;;;;;;37.67;16.55;;;17.20;55.60;;;;;;5053603;28;20202;-65
2022/09/30 02:08:54;;;;;;;34.72;16.98;;;17.20;55.50;;;;;;5053685;28;20665;-65
2022/09/30 02:11:24;;;;;;;32.80;16.90;;;17.10;55.50;;;;;;5053710;28;20198;-65
2022/09/30 02:13:53;;;;;;;31.08;15.68;;;17.10;55.40;;;;;;5053497;28;20215;-65
2022/09/30 02:16:22;;;;;;;33.30;15.95;;;17.10;55.60;;;;;;5053091;28;20310;-66
2022/09/30 02:18:51;;;;;;;33.58;16.55;;;17.10;55.50;;;;;;5054444;28;20253;-65
2022/09/30 02:21:21;;;;;;;32.00;15.15;;;17.10;55.50;;;;;;5053514;28;20200;-65
2022/09/30 02:23:48;;;;;;;31.30;14.55;;;17.10;55.60;;;;;;5053284;28;20574;-65
2022/09/30 02:26:18;;;;;;;28.27;14.50;;;17.10;55.40;;;;;;5060238;28;20202;-65
2022/09/30 02:28:48;;;;;;;30.52;14.65;;;17.10;55.50;;;;;;5074466;28;20641;-65
2022/09/30 02:31:15;;;;;;;28.75;14.52;;;17.10;55.40;;;;;;5074576;28;20191;-65
2022/09/30 02:33:45;;;;;;;31.05;14.80;;;17.10;55.50;;;;;;5074306;28;20837;-65
2022/09/30 02:36:17;;;;;;;30.38;15.07;;;17.10;55.50;;;;;;5074591;28;20202;-65
2022/09/30 02:38:48;;;;;;;28.67;15.25;;;17.10;55.40;;;;;;5072899;28;20226;-65
2022/09/30 02:41:17;;;;;;;26.60;13.95;;;17.00;55.50;;;;;;5074287;28;20175;-65
2022/09/30 02:43:45;;;;;;;29.38;14.65;;;17.10;55.40;;;;;;5074170;28;20205;-66
2022/09/30 02:46:16;;;;;;;29.05;14.15;;;17.10;55.50;;;;;;5072936;28;20198;-65
2022/09/30 02:48:44;;;;;;;27.08;13.52;;;17.10;55.60;;;;;;5074045;28;20638;-65
2022/09/30 02:51:14;;;;;;;25.50;13.20;;;17.10;55.60;;;;;;5074352;28;20195;-66
2022/09/30 02:53:43;;;;;;;27.40;13.25;;;17.10;55.50;;;;;;5072758;28;20186;-65
2022/09/30 02:56:16;;;;;;;26.23;13.35;;;17.10;55.50;;;;;;5074020;28;20227;-66
2022/09/30 02:58:42;;;;;;;27.15;12.43;;;17.10;55.50;;;;;;5074197;28;20692;-65
2022/09/30 03:01:11;;;;;;;25.30;13.13;;;17.00;55.40;;;;;;5072640;28;20256;-66
2022/09/30 03:03:39;;;;;;;23.58;12.02;;;17.10;55.50;;;;;;5072532;28;20203;-65
2022/09/30 03:06:07;;;;;;;27.83;13.18;;;17.10;55.40;;;;;;5072650;28;20206;-65
2022/09/30 03:08:35;;;;;;;23.95;11.98;;;17.10;55.40;;;;;;5072355;28;20219;-65
2022/09/30 03:11:02;;;;;;;27.02;12.40;;;17.00;55.20;;;;;;5073658;28;20280;-65
2022/09/30 03:13:44;;;;;;;26.05;12.23;;;17.10;55.20;;;;;;5073493;28;20187;-65
2022/09/30 03:16:16;;;;;;;23.63;12.27;;;17.10;55.40;;;;;;5072224;28;20214;-65
2022/09/30 03:18:54;;;;;;;24.48;11.93;;;17.10;55.40;;;;;;5073518;28;20712;-65
2022/09/30 03:21:29;;;;;;;22.70;11.98;;;17.10;55.30;;;;;;5072347;28;20277;-65
2022/09/30 03:24:22;;;;;;;24.13;11.68;;;17.10;55.50;;;;;;5072255;28;20564;-65
2022/09/30 03:26:53;;;;;;;22.17;11.27;;;17.10;55.50;;;;;;5074233;28;20215;-65
2022/09/30 03:29:24;;;;;;;23.77;11.40;;;17.10;55.60;;;;;;5073579;28;20202;-65
2022/09/30 03:31:57;;;;;;;22.92;11.25;;;17.10;55.60;;;;;;5073216;28;20606;-65
2022/09/30 03:34:28;;;;;;;22.95;11.45;;;17.10;55.60;;;;;;5072399;28;20214;-65
2022/09/30 03:37:01;;;;;;;24.27;11.93;;;17.20;55.70;;;;;;5072136;28;20222;-65
2022/09/30 03:39:37;;;;;;;22.38;11.40;;;17.20;55.60;;;;;;5073369;28;20195;-65
2022/09/30 03:42:07;;;;;;;23.27;12.18;;;17.20;55.60;;;;;;5072201;28;20190;-65
2022/09/30 03:44:38;;;;;;;23.20;11.27;;;17.20;55.50;;;;;;5073276;28;20267;-65
2022/09/30 03:47:07;;;;;;;21.23;10.65;;;17.20;55.60;;;;;;5071938;28;20215;-65
2022/09/30 03:49:35;;;;;;;22.23;10.32;;;17.30;55.50;;;;;;5071933;28;20683;-65
2022/09/30 03:52:05;;;;;;;21.85;10.98;;;17.30;55.40;;;;;;5071985;28;20284;-65
2022/09/30 03:54:37;;;;;;;22.20;11.50;;;17.30;55.30;;;;;;5072910;28;20760;-65
2022/09/30 03:57:04;;;;;;;19.92;11.43;;;17.30;55.30;;;;;;5073054;28;20691;-65
2022/09/30 03:59:31;;;;;;;18.13;10.32;;;17.30;55.20;;;;;;5071757;28;20320;-66
2022/09/30 04:01:58;;;;;;;19.20;10.40;;;17.30;55.30;;;;;;5072017;28;20195;-65
2022/09/30 04:04:25;;;;;;;18.27;9.65;;;17.30;55.30;;;;;;5052947;28;20199;-66
2022/09/30 04:06:52;;;;;;;16.77;9.70;;;17.30;55.20;;;;;;5052987;28;20731;-66
2022/09/30 04:09:19;;;;;;;17.23;9.43;;;17.30;55.20;;;;;;5051657;28;20222;-66
2022/09/30 04:11:47;;;;;;;19.67;10.02;;;17.30;55.20;;;;;;5051761;28;20234;-66
2022/09/30 04:14:14;;;;;;;18.25;9.63;;;17.30;55.20;;;;;;5052723;28;20219;-66
2022/09/30 04:16:41;;;;;;;19.58;9.57;;;17.30;55.20;;;;;;5053103;28;20207;-66
2022/09/30 04:19:08;;;;;;;18.35;9.57;;;17.30;55.10;;;;;;5052873;28;20191;-66
2022/09/30 04:21:35;;;;;;;17.42;9.50;;;17.30;55.10;;;;;;5052846;28;20188;-66
2022/09/30 04:24:02;;;;;;;14.43;8.43;;;17.30;55.20;;;;;;5052701;28;20665;-66
2022/09/30 04:26:29;;;;;;;15.95;8.43;;;17.30;55.10;;;;;;5052784;28;20192;-66
2022/09/30 04:28:58;;;;;;;16.08;8.88;;;17.30;55.20;;;;;;5051424;28;20203;-66
2022/09/30 04:31:24;;;;;;;17.58;8.90;;;17.30;55.00;;;;;;5051225;28;20195;-66
2022/09/30 04:33:52;;;;;;;16.52;8.68;;;17.30;55.00;;;;;;5046575;28;20194;-65
2022/09/30 04:36:19;;;;;;;14.93;8.43;;;17.20;55.00;;;;;;5117042;22;20264;-80
2022/09/30 04:38:46;;;;;;;17.60;9.20;;;17.30;55.00;;;;;;5092321;28;20626;-80
2022/09/30 04:41:14;;;;;;;14.63;8.20;;;17.20;55.20;;;;;;5094416;28;20239;-81
2022/09/30 04:43:43;;;;;;;16.15;8.75;;;17.30;55.30;;;;;;5096465;28;20213;-81
2022/09/30 04:46:12;;;;;;;14.35;7.65;;;17.20;55.20;;;;;;5096580;28;20650;-81
2022/09/30 04:48:41;;;;;;;14.73;8.15;;;17.20;55.20;;;;;;5096391;28;20202;-82
2022/09/30 04:51:08;;;;;;;14.02;7.97;;;17.20;55.40;;;;;;5083574;28;20209;-80
2022/09/30 04:53:35;;;;;;;14.75;8.68;;;17.20;55.50;;;;;;5079798;28;20783;-81
2022/09/30 04:56:03;;;;;;;16.02;8.45;;;17.20;56.10;;;;;;5087993;28;20222;-81
2022/09/30 04:58:31;;;;;;;15.60;7.90;;;17.20;55.50;;;;;;5095752;28;20749;-82
2022/09/30 05:01:02;;;;;;;14.02;7.95;;;17.10;55.50;;;;;;5095958;28;20198;-82
2022/09/30 05:03:30;;;;;;;13.45;8.18;;;17.20;55.60;;;;;;5087434;28;20215;-81
2022/09/30 05:05:58;;;;;;;13.73;7.53;;;17.10;55.60;;;;;;5075712;28;20203;-81
2022/09/30 05:08:25;;;;;;;15.85;8.13;;;17.10;55.70;;;;;;5076366;28;20198;-81
2022/09/30 05:10:56;;;;;;;11.75;6.82;;;17.10;55.70;;;;;;5075808;28;20234;-81
2022/09/30 05:13:24;;;;;;;13.25;7.60;;;17.10;56.30;;;;;;5075409;28;20222;-81
2022/09/30 05:15:52;;;;;;;10.70;6.78;;;17.20;55.80;;;;;;5076128;28;20237;-79
2022/09/30 05:18:19;;;;;;;9.70;6.53;;;17.10;55.80;;;;;;5079619;28;20199;-80
2022/09/30 05:20:50;;;;;;;10.57;7.22;;;17.20;56.00;;;;;;5077684;28;20572;-80
2022/09/30 05:23:18;;;;;;;9.60;6.90;;;17.10;55.60;;;;;;5082141;28;20248;-80
2022/09/30 05:25:45;;;;;;;11.35;6.88;;;17.10;55.60;;;;;;5082161;28;20281;-80
2022/09/30 05:28:12;;;;;;;11.77;7.07;;;17.10;55.50;;;;;;5076056;28;20646;-81
2022/09/30 05:30:40;;;;;;;11.60;7.18;;;17.10;55.50;;;;;;5076689;28;20194;-80
2022/09/30 05:33:07;;;;;;;11.65;7.72;;;17.10;55.50;;;;;;5078116;28;20233;-80
2022/09/30 05:35:35;;;;;;;12.30;7.68;;;17.00;55.30;;;;;;5075076;28;20214;-81
2022/09/30 05:38:03;;;;;;;12.05;6.88;;;17.10;55.40;;;;;;5075349;28;20286;-81
2022/09/30 05:40:31;;;;;;;11.32;7.72;;;17.10;55.40;;;;;;5077019;28;20252;-81
2022/09/30 05:42:58;;;;;;;13.65;7.10;;;17.00;55.40;;;;;;5075627;28;20234;-80
2022/09/30 05:45:25;;;;;;;11.43;7.22;;;17.10;55.60;;;;;;5075860;28;20365;-79
2022/09/30 05:47:52;;;;;;;12.60;7.22;;;17.00;55.80;;;;;;5073671;28;20261;-79
2022/09/30 05:50:20;;;;;;;9.70;7.13;;;17.00;55.30;;;;;;5073606;28;20195;-79
2022/09/30 05:52:48;;;;;;;12.65;7.75;;;17.10;55.20;;;;;;5073884;28;20219;-79
2022/09/30 05:55:17;;;;;;;11.88;7.88;;;17.10;55.10;;;;;;5074516;28;20215;-80
2022/09/30 05:57:46;;;;;;;10.45;7.55;;;17.00;55.00;;;;;;5074617;28;20680;-80
2022/09/30 06:00:14;;;;;;;11.10;7.20;;;17.10;54.90;;;;;;5074633;28;20282;-80
2022/09/30 06:02:42;;;;;;;10.45;6.82;;;17.10;55.00;;;;;;5075415;28;20298;-79
2022/09/30 06:05:09;;;;;;;11.13;7.22;;;17.10;55.60;;;;;;5075248;28;20281;-80
2022/09/30 06:07:37;;;;;;;11.50;7.57;;;17.10;55.10;;;;;;5074716;28;20666;-80
2022/09/30 06:10:04;;;;;;;10.27;7.30;;;17.20;55.40;;;;;;5074580;28;20263;-79
2022/09/30 06:12:34;;;;;;;10.75;7.35;;;17.10;55.30;;;;;;5074392;28;20218;-80
2022/09/30 06:15:01;;;;;;;11.40;6.63;;;17.20;55.30;;;;;;5075067;28;20311;-80
2022/09/30 06:17:28;;;;;;;10.38;6.63;;;17.10;55.10;;;;;;5075318;28;20198;-80
2022/09/30 06:19:55;;;;;;;9.70;7.00;;;17.20;55.10;;;;;;5074850;28;20195;-80
2022/09/30 06:22:23;;;;;;;8.40;6.57;;;17.20;55.10;;;;;;5074076;28;20223;-80
2022/09/30 06:24:50;;;;;;;10.13;6.70;;;17.20;55.00;;;;;;5073960;28;20713;-79
2022/09/30 06:27:18;;;;;;;9.52;5.78;;;17.20;55.20;;;;;;5074011;28;20218;-80
2022/09/30 06:29:47;;;;;;;8.45;6.25;;;17.30;55.30;;;;;;5075656;28;20199;-80
2022/09/30 06:32:14;;;;;;;9.73;6.38;;;17.30;55.30;;;;;;5073768;28;20223;-80
2022/09/30 06:34:41;;;;;;;7.32;6.25;;;17.30;55.20;;;;;;5073674;28;20646;-80
2022/09/30 06:37:08;;;;;;;8.15;5.80;;;17.30;55.00;;;;;;5073492;28;20203;-80
2022/09/30 06:39:35;;;;;;;7.93;6.15;;;17.30;55.10;;;;;;5073603;28;20282;-80
2022/09/30 06:42:03;;;;;;;7.72;5.60;;;17.40;55.30;;;;;;5073369;28;20264;-80
2022/09/30 06:44:32;;;;;;;7.55;5.60;;;17.40;55.20;;;;;;5073821;28;20201;-80
2022/09/30 06:47:01;;;;;;;7.55;6.18;;;17.40;55.20;;;;;;5073289;28;20290;-80
2022/09/30 06:49:28;;;;;;;6.22;5.45;;;17.40;55.10;;;;;;5073315;28;20194;-80
2022/09/30 06:51:55;;;;;;;7.65;5.43;;;17.40;55.00;;;;;;5073348;28;20218;-80
2022/09/30 06:54:23;;;;;;;7.53;6.10;;;17.50;55.00;;;;;;5073940;28;20240;-80
2022/09/30 06:56:52;;;;;;;8.32;6.18;;;17.50;54.80;;;;;;5073561;28;20218;-80
2022/09/30 06:59:20;;;;;;;8.57;6.88;;;17.50;54.90;;;;;;5074458;28;20538;-80
2022/09/30 07:01:47;;;;;;;7.68;6.60;;;17.50;54.50;;;;;;5074174;28;20303;-80
2022/09/30 07:04:16;;;;;;;8.60;6.40;;;17.50;54.30;;;;;;5073290;28;20194;-80
2022/09/30 07:06:44;;;;;;;7.82;6.20;;;17.50;54.30;;;;;;5075153;28;20195;-80
2022/09/30 07:09:11;;;;;;;6.80;5.95;;;17.50;54.20;;;;;;5073930;28;20190;-79
2022/09/30 07:11:39;;;;;;;7.80;6.75;;;17.60;54.40;;;;;;5075330;28;20230;-79
2022/09/30 07:14:06;;;;;;;7.95;6.53;;;17.50;54.20;;;;;;5074955;28;20248;-80
2022/09/30 07:16:33;;;;;;;8.27;6.47;;;17.50;54.10;;;;;;5073062;28;20245;-80
2022/09/30 07:19:01;;;;;;;7.22;6.45;;;17.60;54.30;;;;;;5073082;28;20206;-80
2022/09/30 07:21:30;;;;;;;8.88;6.90;;;17.60;54.30;;;;;;5072713;28;20265;-80
2022/09/30 07:23:58;;;;;;;7.30;6.35;;;17.60;54.10;;;;;;5072831;28;20230;-80
2022/09/30 07:26:27;;;;;;;8.55;6.40;;;17.60;54.10;;;;;;5072644;28;20260;-80
2022/09/30 07:28:54;;;;;;;7.45;6.32;;;17.60;54.10;;;;;;5072905;28;20658;-80
2022/09/30 07:31:23;;;;;;;7.38;6.13;;;17.60;54.10;;;;;;5072818;28;20201;-80
2022/09/30 07:33:51;;;;;;;7.20;6.28;;;17.60;54.10;;;;;;5072876;28;20214;-80
2022/09/30 07:36:18;;;;;;;7.25;6.50;;;17.70;54.10;;;;;;5072266;28;20230;-80
2022/09/30 07:38:48;;;;;;;7.68;6.88;;;17.70;54.10;;;;;;5072771;28;20195;-80
2022/09/30 07:41:17;;;;;;;7.25;6.03;;;17.70;54.10;;;;;;5072609;28;20203;-80
2022/09/30 07:43:44;;;;;;;10.57;6.97;;;17.70;54.10;;;;;;5072447;28;20210;-80
2022/09/30 07:46:13;;;;;;;8.93;6.55;;;17.80;54.00;;;;;;5072542;28;20193;-79
2022/09/30 07:48:46;;;;;;;8.48;6.57;;;17.80;54.00;;;;;;5072837;28;20286;-80
2022/09/30 07:51:15;;;;;;;8.15;6.47;;;17.80;53.90;;;;;;5073714;28;20211;-80
2022/09/30 07:53:43;;;;;;;9.18;6.07;;;17.90;53.90;;;;;;5072959;28;20223;-80
2022/09/30 07:56:11;;;;;;;6.65;5.95;;;17.90;53.80;;;;;;5072602;28;20222;-80
2022/09/30 07:58:39;;;;;;;8.52;5.90;;;18.00;53.70;;;;;;5072615;28;20199;-79
2022/09/30 08:01:06;;;;;;;6.45;5.55;;;18.00;53.60;;;;;;5073107;28;20194;-80
2022/09/30 08:03:34;;;;;;;8.15;5.70;;;18.10;53.20;;;;;;5074386;28;20290;-80
2022/09/30 08:06:05;;;;;;;6.22;5.60;;;18.20;53.20;;;;;;5073649;28;20187;-80
2022/09/30 08:08:33;;;;;;;6.68;5.38;;;18.30;53.20;;;;;;5073283;28;20297;-80
2022/09/30 08:11:00;;;;;;;6.47;5.80;;;18.30;53.10;;;;;;5072822;28;20199;-80
2022/09/30 08:13:29;;;;;;;6.70;5.55;;;18.30;53.10;;;;;;5072749;28;20272;-80
2022/09/30 08:15:56;;;;;;;7.28;5.25;;;18.40;52.90;;;;;;5075167;28;20308;-80
2022/09/30 08:18:23;;;;;;;7.15;5.53;;;18.40;52.90;;;;;;5076724;28;20206;-80
2022/09/30 08:20:50;;;;;;;6.68;5.45;;;18.40;52.90;;;;;;5076342;28;20248;-80
2022/09/30 08:23:17;;;;;;;6.22;5.03;;;18.50;52.90;;;;;;5076474;28;20305;-80
2022/09/30 08:25:44;;;;;;;6.85;5.82;;;18.50;52.90;;;;;;5076040;28;20281;-80
2022/09/30 08:28:12;;;;;;;6.25;5.25;;;18.60;52.80;;;;;;5076374;28;20577;-80
2022/09/30 08:30:40;;;;;;;5.75;4.78;;;18.60;52.70;;;;;;5076137;28;20655;-80
2022/09/30 08:33:08;;;;;;;5.65;4.60;;;18.70;52.50;;;;;;5076291;28;20252;-80
2022/09/30 08:35:36;;;;;;;5.00;4.47;;;18.80;53.10;;;;;;5075921;28;20287;-80
2022/09/30 08:38:03;;;;;;;5.70;5.10;;;18.90;52.40;;;;;;5077650;28;20194;-80
2022/09/30 08:40:31;;;;;;;6.75;5.00;;;19.00;52.20;;;;;;5077430;28;20203;-81
2022/09/30 08:43:09;;;;;;;5.03;4.53;;;19.00;52.00;;;;;;5078385;28;20238;-80
2022/09/30 08:45:41;;;;;;;5.85;5.20;;;19.10;51.80;;;;;;5078335;28;20302;-80
2022/09/30 08:48:20;;;;;;;5.40;4.88;;;19.20;51.60;;;;;;5076055;28;20256;-80
2022/09/30 08:50:53;;;;;;;5.35;4.65;;;19.20;51.60;;;;;;5075730;28;20191;-80
2022/09/30 08:53:23;;;;;;;5.75;4.82;;;19.30;51.40;;;;;;5075549;28;20215;-80
2022/09/30 08:55:50;;;;;;;5.22;4.72;;;19.30;51.40;;;;;;5075563;28;20219;-81
2022/09/30 08:58:21;;;;;;;6.35;5.40;;;19.40;51.40;;;;;;5075780;28;20252;-80
2022/09/30 09:00:50;;;;;;;7.13;5.50;;;19.40;51.20;;;;;;5076028;28;20221;-80
2022/09/30 09:03:19;;;;;;;5.63;5.13;;;19.50;51.20;;;;;;5076593;28;20260;-79
2022/09/30 09:05:51;;;;;;;5.72;5.13;;;19.50;51.00;;;;;;5075644;28;20187;-80
2022/09/30 09:08:21;;;;;;;5.75;4.75;;;19.60;50.90;;;;;;5075812;28;20191;-80
2022/09/30 09:10:52;;;;;;;5.63;4.68;;;19.70;50.80;;;;;;5077224;28;20214;-80
2022/09/30 09:13:32;;;;;;;6.30;5.07;;;19.80;50.70;;;;;;5076048;28;20226;-80
2022/09/30 09:16:03;;;;;;;6.90;5.40;;;19.90;50.50;;;;;;5075696;28;20214;-80
2022/09/30 09:18:42;;;;;;;5.95;5.35;;;20.00;50.30;;;;;;5075459;28;20187;-81
2022/09/30 09:21:20;;;;;;;5.88;5.05;;;20.10;50.20;;;;;;5075747;28;20194;-81
2022/09/30 09:23:48;;;;;;;6.30;5.65;;;20.30;50.00;;;;;;5075346;28;20214;-80
2022/09/30 09:26:15;;;;;;;5.75;5.15;;;20.40;49.70;;;;;;5075099;28;20658;-81
2022/09/30 09:28:45;;;;;;;6.05;4.68;;;20.50;49.50;;;;;;5075553;28;20199;-81
2022/09/30 09:31:16;;;;;;;4.50;3.90;;;20.60;49.30;;;;;;5075513;28;20521;-81
2022/09/30 09:33:44;;;;;;;5.30;4.55;;;20.60;49.10;;;;;;5075048;28;20222;-80
2022/09/30 09:36:26;;;;;;;4.40;3.88;;;20.70;49.10;;;;;;5074510;28;20218;-80
2022/09/30 09:39:01;;;;;;;5.47;4.40;;;20.80;49.10;;;;;;5075368;28;20256;-81
2022/09/30 09:41:33;;;;;;;4.30;3.90;;;20.80;48.80;;;;;;5074851;28;20194;-81
2022/09/30 09:44:02;;;;;;;4.05;3.65;;;20.80;48.70;;;;;;5074716;28;20195;-81
2022/09/30 09:46:33;;;;;;;4.45;4.05;;;20.90;48.70;;;;;;5074722;28;20197;-80
2022/09/30 09:49:37;;;;;;;3.70;3.20;;;20.90;48.60;;;;;;5074586;28;20202;-80
2022/09/30 09:52:39;;;;;;;4.20;3.78;;;20.90;48.60;;;;;;5061899;28;20218;-81
2022/09/30 09:55:10;;;;;;;4.68;3.83;;;20.90;48.50;;;;;;4997755;28;20211;-81
2022/09/30 09:57:38;;;;;;;4.57;3.40;;;20.90;48.40;;;;;;5061196;28;20229;-81
2022/09/30 10:03:00;;;;;;;3.90;3.53;;;21.00;48.40;;;;;;5073827;28;20685;-81
2022/09/30 10:05:28;;;;;;;3.65;3.17;;;21.00;48.20;;;;;;5074792;28;20639;-81
2022/09/30 10:08:09;;;;;;;3.92;3.53;;;21.10;48.10;;;;;;5074492;28;20191;-80
2022/09/30 10:10:46;;;;;;;3.65;3.35;;;21.10;48.00;;;;;;5074314;28;20195;-81
2022/09/30 10:13:17;;;;;;;3.40;3.10;;;21.10;47.90;;;;;;5074215;28;20651;-81
2022/09/30 10:15:45;;;;;;;4.30;3.30;;;21.10;47.80;;;;;;5075151;28;20233;-81
2022/09/30 10:18:19;;;;;;;3.72;3.20;;;21.10;47.80;;;;;;5076100;28;20205;-81
2022/09/30 10:20:51;;;;;;;3.88;3.08;;;21.10;47.90;;;;;;5076183;28;20345;-81
2022/09/30 10:23:20;;;;;;;4.38;3.17;;;21.10;48.00;;;;;;5074738;28;20225;-81
2022/09/30 10:26:05;;;;;;;3.53;3.22;;;21.10;47.90;;;;;;5074957;28;20199;-81
2022/09/30 10:28:35;;;;;;;3.40;3.10;;;21.10;48.00;;;;;;5075476;28;20197;-81
2022/09/30 10:31:06;;;;;;;4.07;3.40;;;21.10;47.90;;;;;;5074258;28;20199;-81
2022/09/30 10:33:37;;;;;;;3.60;3.08;;;21.10;47.90;;;;;;5073827;28;20258;-81
2022/09/30 10:36:09;;;;;;;3.78;3.38;;;21.10;47.80;;;;;;5073745;28;20214;-81
2022/09/30 10:38:37;;;;;;;3.47;3.17;;;21.10;47.80;;;;;;5072960;28;20240;-81
2022/09/30 10:41:04;;;;;;;3.90;3.20;;;21.10;47.80;;;;;;5073765;28;20202;-81
2022/09/30 10:43:36;;;;;;;3.65;3.30;;;21.10;47.80;;;;;;5073600;28;20225;-81
2022/09/30 10:46:03;;;;;;;3.50;3.20;;;21.10;47.80;;;;;;5073742;28;20217;-81
2022/09/30 10:48:35;;;;;;;3.13;2.83;;;21.20;47.90;;;;;;5073591;28;20611;-81
2022/09/30 10:51:03;;;;;;;3.42;3.08;;;21.10;47.80;;;;;;5073533;28;20289;-80
2022/09/30 10:53:32;;;;;;;3.33;3.00;;;21.10;47.90;;;;;;5073436;28;20222;-81
2022/09/30 10:56:00;;;;;;;3.13;2.83;;;21.10;48.00;;;;;;5073655;28;20205;-80
2022/09/30 10:58:38;;;;;;;3.42;3.13;;;21.10;47.90;;;;;;5075499;28;20190;-82
2022/09/30 11:01:17;;;;;;;3.15;2.85;;;21.10;47.90;;;;;;5074103;28;20647;-81
2022/09/30 11:03:52;;;;;;;3.03;2.80;;;21.10;48.00;;;;;;5073623;28;20229;-81
2022/09/30 11:06:20;;;;;;;2.92;2.72;;;21.10;48.10;;;;;;5073746;28;20217;-81
2022/09/30 11:08:51;;;;;;;3.20;2.90;;;21.10;48.20;;;;;;5073679;28;20332;-81
2022/09/30 11:11:20;;;;;;;3.00;2.70;;;21.10;48.20;;;;;;5074370;28;20195;-81
2022/09/30 11:13:50;;;;;;;3.55;2.90;;;21.10;48.20;;;;;;5073819;28;20305;-81
2022/09/30 11:16:21;;;;;;;3.20;2.90;;;21.10;48.30;;;;;;5073034;28;20646;-81
2022/09/30 11:18:52;;;;;;;3.35;3.05;;;21.10;48.40;;;;;;5073014;28;20191;-81
2022/09/30 11:21:22;;;;;;;3.28;2.88;;;21.10;48.30;;;;;;5073107;28;20233;-81
2022/09/30 11:23:51;;;;;;;2.97;2.70;;;21.10;48.30;;;;;;5073027;28;20580;-81
2022/09/30 11:26:24;;;;;;;2.85;2.58;;;21.10;48.40;;;;;;5074372;28;20203;-81
2022/09/30 11:29:03;;;;;;;3.13;2.60;;;21.20;48.40;;;;;;5075835;28;20662;-81
2022/09/30 11:31:31;;;;;;;3.25;2.88;;;21.20;48.90;;;;;;5075701;28;20281;-81
2022/09/30 11:34:17;;;;;;;2.95;2.60;;;21.20;48.30;;;;;;5075596;28;20217;-81
2022/09/30 11:36:47;;;;;;;2.78;2.58;;;21.20;48.30;;;;;;5074399;28;20225;-81
2022/09/30 11:39:27;;;;;;;2.95;2.60;;;21.20;48.30;;;;;;5072932;28;20191;-80
2022/09/30 11:41:57;;;;;;;2.78;2.58;;;21.20;48.40;;;;;;5072780;28;20221;-81
2022/09/30 11:44:28;;;;;;;3.30;3.00;;;21.20;49.00;;;;;;5072940;28;20237;-81
2022/09/30 11:47:02;;;;;;;3.08;2.75;;;21.30;48.40;;;;;;5072981;28;20601;-81
2022/09/30 11:49:59;;;;;;;3.25;2.88;;;21.30;48.40;;;;;;5073188;28;20632;-81
2022/09/30 11:52:29;;;;;;;3.25;2.60;;;21.30;48.40;;;;;;5073978;28;20640;-80
2022/09/30 11:55:08;;;;;;;2.90;2.70;;;21.30;48.30;;;;;;5073863;28;20194;-81
2022/09/30 11:57:37;;;;;;;3.60;2.83;;;21.30;48.40;;;;;;5073341;28;20237;-81
2022/09/30 12:00:06;;;;;;;2.70;2.50;;;21.40;48.40;;;;;;5073881;28;20205;-81
2022/09/30 12:02:39;;;;;;;2.70;2.50;;;21.40;48.40;;;;;;5073596;28;20318;-81
2022/09/30 12:05:10;;;;;;;2.67;2.47;;;21.40;48.40;;;;;;5072069;28;20205;-81
2022/09/30 12:07:40;;;;;;;3.03;2.80;;;21.40;48.40;;;;;;5072269;28;20215;-81
2022/09/30 12:10:14;;;;;;;2.83;2.55;;;21.40;48.40;;;;;;5072002;28;20381;-81
2022/09/30 12:12:42;;;;;;;3.10;2.80;;;21.40;48.40;;;;;;5072195;28;20243;-81
2022/09/30 12:15:14;;;;;;;2.53;2.33;;;21.40;48.40;;;;;;5072154;28;20198;-81
2022/09/30 12:17:44;;;;;;;2.95;2.75;;;21.40;48.50;;;;;;5072867;28;20256;-81
2022/09/30 12:20:16;;;;;;;2.55;2.35;;;21.40;48.50;;;;;;5072632;28;20213;-81
2022/09/30 12:22:44;;;;;;;2.85;2.63;;;21.40;48.50;;;;;;5073612;28;20210;-81
2022/09/30 12:25:13;;;;;;;2.60;2.40;;;21.30;48.40;;;;;;5072540;28;20741;-81
2022/09/30 12:27:42;;;;;;;2.90;2.70;;;21.40;48.50;;;;;;5072497;28;20285;-81
2022/09/30 12:30:19;;;;;;;2.63;2.42;;;21.40;48.50;;;;;;5072301;28;20198;-81
2022/09/30 12:33:09;;;;;;;2.58;2.38;;;21.40;48.50;;;;;;5072654;28;20221;-81
2022/09/30 12:36:06;;;;;;;2.50;2.30;;;21.40;48.60;;;;;;5071854;28;20248;-81
2022/09/30 12:38:47;;;;;;;2.72;2.53;;;21.40;48.60;;;;;;5071803;28;20597;-81
2022/09/30 12:41:23;;;;;;;2.70;2.50;;;21.40;48.60;;;;;;5072626;28;20275;-81
2022/09/30 12:44:18;;;;;;;2.42;2.30;;;21.30;48.60;;;;;;5072481;28;20254;-80
2022/09/30 12:46:52;;;;;;;2.60;2.40;;;21.30;48.60;;;;;;5073152;28;20190;-80
2022/09/30 12:49:22;;;;;;;2.67;2.47;;;21.30;48.70;;;;;;5073610;28;20206;-81
2022/09/30 12:51:53;;;;;;;2.40;2.20;;;21.30;48.70;;;;;;5073993;28;20563;-80
2022/09/30 12:54:21;;;;;;;2.45;2.25;;;21.30;48.80;;;;;;5072734;28;20238;-81
2022/09/30 12:56:53;;;;;;;2.60;2.40;;;21.30;48.80;;;;;;5073448;28;20256;-80
2022/09/30 12:59:24;;;;;;;2.35;2.15;;;21.30;48.80;;;;;;5072339;28;20199;-80